sensor_id;sensor_type;location;lat;lon;timestamp;pressure;altitude;pressure_sealevel;temperature;humidity
41312;BME280;27061;41.648;24.568;2022-09-09T00:02:15;86386.31;;;17.74;59.62
41312;BME280;27061;41.648;24.568;2022-09-09T00:04:59;86395.28;;;17.78;59.57
41312;BME280;27061;41.648;24.568;2022-09-09T00:07:55;86370.53;;;17.62;59.45
41312;BME280;27061;41.648;24.568;2022-09-09T00:10:29;86405.63;;;17.84;59.78
41312;BME280;27061;41.648;24.568;2022-09-09T00:13:16;86407.09;;;17.81;59.90
41312;BME280;27061;41.648;24.568;2022-09-09T00:21:16;86398.31;;;17.70;60.36
41312;BME280;27061;41.648;24.568;2022-09-09T00:23:51;86394.97;;;17.66;60.29
41312;BME280;27061;41.648;24.568;2022-09-09T00:26:42;86401.97;;;17.65;60.23
41312;BME280;27061;41.648;24.568;2022-09-09T00:32:17;86369.00;;;17.42;60.67
41312;BME280;27061;41.648;24.568;2022-09-09T00:34:56;86395.91;;;17.56;60.74
41312;BME280;27061;41.648;24.568;2022-09-09T00:37:26;86381.53;;;17.45;60.58
41312;BME280;27061;41.648;24.568;2022-09-09T00:39:57;86385.84;;;17.40;60.82
41312;BME280;27061;41.648;24.568;2022-09-09T00:42:39;86388.34;;;17.50;60.61
41312;BME280;27061;41.648;24.568;2022-09-09T00:47:57;86390.66;;;17.44;60.42
41312;BME280;27061;41.648;24.568;2022-09-09T00:50:56;86392.72;;;17.45;60.49
41312;BME280;27061;41.648;24.568;2022-09-09T00:53:31;86402.53;;;17.44;60.79
41312;BME280;27061;41.648;24.568;2022-09-09T00:56:12;86389.28;;;17.43;60.82
41312;BME280;27061;41.648;24.568;2022-09-09T00:58:43;86396.31;;;17.42;60.76
41312;BME280;27061;41.648;24.568;2022-09-09T01:01:18;86369.41;;;17.28;60.61
41312;BME280;27061;41.648;24.568;2022-09-09T01:03:52;86392.06;;;17.43;60.82
41312;BME280;27061;41.648;24.568;2022-09-09T01:14:41;86406.88;;;17.39;61.56
41312;BME280;27061;41.648;24.568;2022-09-09T01:28:47;86368.78;;;17.26;61.82
41312;BME280;27061;41.648;24.568;2022-09-09T01:31:21;86384.72;;;17.31;61.56
41312;BME280;27061;41.648;24.568;2022-09-09T01:33:50;86381.16;;;17.33;61.76
41312;BME280;27061;41.648;24.568;2022-09-09T01:36:29;86386.06;;;17.32;61.93
41312;BME280;27061;41.648;24.568;2022-09-09T01:39:00;86386.06;;;17.32;61.97
41312;BME280;27061;41.648;24.568;2022-09-09T01:41:29;86376.41;;;17.27;62.12
41312;BME280;27061;41.648;24.568;2022-09-09T01:44:07;86365.50;;;17.17;62.57
41312;BME280;27061;41.648;24.568;2022-09-09T01:46:37;86392.38;;;17.33;62.05
41312;BME280;27061;41.648;24.568;2022-09-09T01:49:12;86366.78;;;17.22;62.60
41312;BME280;27061;41.648;24.568;2022-09-09T01:51:41;86355.75;;;17.16;62.56
41312;BME280;27061;41.648;24.568;2022-09-09T01:54:13;86362.78;;;17.15;62.77
41312;BME280;27061;41.648;24.568;2022-09-09T01:56:51;86364.09;;;17.18;62.40
41312;BME280;27061;41.648;24.568;2022-09-09T01:59:39;86377.75;;;17.30;62.30
41312;BME280;27061;41.648;24.568;2022-09-09T02:02:11;86381.91;;;17.31;62.51
41312;BME280;27061;41.648;24.568;2022-09-09T02:04:52;86383.38;;;17.28;62.84
41312;BME280;27061;41.648;24.568;2022-09-09T02:07:40;86380.59;;;17.28;62.50
41312;BME280;27061;41.648;24.568;2022-09-09T02:10:46;86379.22;;;17.27;62.02
41312;BME280;27061;41.648;24.568;2022-09-09T02:13:28;86369.75;;;17.16;62.30
41312;BME280;27061;41.648;24.568;2022-09-09T02:16:20;86386.19;;;17.28;62.34
41312;BME280;27061;41.648;24.568;2022-09-09T02:19:00;86377.88;;;17.26;62.37
41312;BME280;27061;41.648;24.568;2022-09-09T02:21:42;86348.94;;;17.09;62.37
41312;BME280;27061;41.648;24.568;2022-09-09T02:24:12;86379.22;;;17.27;62.25
41312;BME280;27061;41.648;24.568;2022-09-09T02:26:51;86357.25;;;17.13;62.26
41312;BME280;27061;41.648;24.568;2022-09-09T02:29:27;86363.94;;;17.24;62.25
41312;BME280;27061;41.648;24.568;2022-09-09T02:32:01;86364.16;;;17.16;62.01
41312;BME280;27061;41.648;24.568;2022-09-09T02:34:37;86339.22;;;17.06;61.97
41312;BME280;27061;41.648;24.568;2022-09-09T02:37:09;86368.84;;;17.24;62.37
41312;BME280;27061;41.648;24.568;2022-09-09T02:39:41;86350.22;;;17.14;62.28
41312;BME280;27061;41.648;24.568;2022-09-09T02:42:13;86358.47;;;17.18;62.12
41312;BME280;27061;41.648;24.568;2022-09-09T02:44:44;86364.16;;;17.16;62.30
41312;BME280;27061;41.648;24.568;2022-09-09T02:47:34;86347.81;;;17.00;62.26
41312;BME280;27061;41.648;24.568;2022-09-09T02:50:22;86375.22;;;17.20;62.04
41312;BME280;27061;41.648;24.568;2022-09-09T02:53:03;86310.81;;;16.72;61.77
41312;BME280;27061;41.648;24.568;2022-09-09T02:55:41;86372.56;;;17.16;61.60
41312;BME280;27061;41.648;24.568;2022-09-09T02:58:13;86329.38;;;16.84;61.99
41312;BME280;27061;41.648;24.568;2022-09-09T03:00:51;86335.47;;;16.91;62.39
41312;BME280;27061;41.648;24.568;2022-09-09T03:03:23;86370.53;;;17.12;62.66
41312;BME280;27061;41.648;24.568;2022-09-09T03:05:51;86353.97;;;17.04;62.65
41312;BME280;27061;41.648;24.568;2022-09-09T03:08:20;86379.66;;;17.11;62.41
41312;BME280;27061;41.648;24.568;2022-09-09T03:10:47;86348.72;;;16.92;62.25
41312;BME280;27061;41.648;24.568;2022-09-09T03:13:17;86350.66;;;16.98;62.68
41312;BME280;27061;41.648;24.568;2022-09-09T03:15:47;86368.53;;;17.09;62.36
41312;BME280;27061;41.648;24.568;2022-09-09T03:18:19;86365.09;;;17.06;62.12
41312;BME280;27061;41.648;24.568;2022-09-09T03:20:50;86316.50;;;16.68;62.19
41312;BME280;27061;41.648;24.568;2022-09-09T03:23:19;86349.41;;;16.93;62.18
41312;BME280;27061;41.648;24.568;2022-09-09T03:25:50;86301.44;;;16.55;62.22
41312;BME280;27061;41.648;24.568;2022-09-09T03:28:26;86364.59;;;17.00;62.33
41312;BME280;27061;41.648;24.568;2022-09-09T03:31:01;86351.06;;;16.83;62.60
41312;BME280;27061;41.648;24.568;2022-09-09T03:33:33;86356.25;;;16.98;62.72
41312;BME280;27061;41.648;24.568;2022-09-09T03:36:05;86340.69;;;16.78;62.23
41312;BME280;27061;41.648;24.568;2022-09-09T03:38:35;86368.94;;;16.95;62.39
41312;BME280;27061;41.648;24.568;2022-09-09T03:41:03;86351.19;;;16.77;62.07
41312;BME280;27061;41.648;24.568;2022-09-09T03:43:34;86329.28;;;16.59;62.23
41312;BME280;27061;41.648;24.568;2022-09-09T03:46:02;86376.00;;;16.92;62.55
41312;BME280;27061;41.648;24.568;2022-09-09T03:48:30;86332.03;;;16.61;62.94
41312;BME280;27061;41.648;24.568;2022-09-09T03:50:58;86337.44;;;16.69;63.13
41312;BME280;27061;41.648;24.568;2022-09-09T03:53:31;86358.22;;;16.76;62.95
41312;BME280;27061;41.648;24.568;2022-09-09T03:55:59;86339.75;;;16.61;63.10
41312;BME280;27061;41.648;24.568;2022-09-09T03:58:29;86310.31;;;16.37;63.29
41312;BME280;27061;41.648;24.568;2022-09-09T04:01:05;86365.13;;;16.79;62.90
41312;BME280;27061;41.648;24.568;2022-09-09T04:03:37;86324.22;;;16.39;62.83
41312;BME280;27061;41.648;24.568;2022-09-09T04:06:06;86343.56;;;16.47;62.87
41312;BME280;27061;41.648;24.568;2022-09-09T04:08:34;86361.81;;;16.73;62.84
41312;BME280;27061;41.648;24.568;2022-09-09T04:11:03;86309.19;;;16.26;62.82
41312;BME280;27061;41.648;24.568;2022-09-09T04:13:38;86325.19;;;16.29;63.06
41312;BME280;27061;41.648;24.568;2022-09-09T04:16:10;86317.56;;;16.26;63.30
41312;BME280;27061;41.648;24.568;2022-09-09T04:18:42;86330.06;;;16.29;63.57
41312;BME280;27061;41.648;24.568;2022-09-09T04:21:13;86303.19;;;16.15;63.37
41312;BME280;27061;41.648;24.568;2022-09-09T04:23:43;86294.53;;;15.98;64.38
41312;BME280;27061;41.648;24.568;2022-09-09T04:26:11;86328.78;;;16.24;64.28
41312;BME280;27061;41.648;24.568;2022-09-09T04:28:40;86356.19;;;16.46;64.44
41312;BME280;27061;41.648;24.568;2022-09-09T04:31:21;86362.44;;;16.46;64.81
41312;BME280;27061;41.648;24.568;2022-09-09T04:33:55;86365.94;;;16.47;64.88
41312;BME280;27061;41.648;24.568;2022-09-09T04:36:25;86333.84;;;16.17;65.40
41312;BME280;27061;41.648;24.568;2022-09-09T04:38:58;86274.44;;;15.63;65.67
41312;BME280;27061;41.648;24.568;2022-09-09T04:41:26;86374.03;;;16.30;66.55
41312;BME280;27061;41.648;24.568;2022-09-09T04:43:56;86364.16;;;16.33;66.61
41312;BME280;27061;41.648;24.568;2022-09-09T04:46:24;86364.84;;;16.34;66.26
41312;BME280;27061;41.648;24.568;2022-09-09T04:48:53;86351.75;;;16.28;67.64
41312;BME280;27061;41.648;24.568;2022-09-09T04:51:22;86355.25;;;16.27;68.81
41312;BME280;27061;41.648;24.568;2022-09-09T04:53:52;86337.34;;;16.18;68.95
41312;BME280;27061;41.648;24.568;2022-09-09T04:56:22;86353.59;;;16.38;68.00
41312;BME280;27061;41.648;24.568;2022-09-09T04:58:53;86376.22;;;16.55;68.09
41312;BME280;27061;41.648;24.568;2022-09-09T05:01:31;86294.00;;;15.90;68.98
41312;BME280;27061;41.648;24.568;2022-09-09T05:04:02;86376.94;;;16.53;69.15
41312;BME280;27061;41.648;24.568;2022-09-09T05:06:33;86367.78;;;16.57;69.30
41312;BME280;27061;41.648;24.568;2022-09-09T05:09:04;86374.00;;;16.59;69.66
41312;BME280;27061;41.648;24.568;2022-09-09T05:11:34;86376.63;;;16.67;71.12
41312;BME280;27061;41.648;24.568;2022-09-09T05:14:31;86373.88;;;16.65;71.93
41312;BME280;27061;41.648;24.568;2022-09-09T05:17:00;86351.78;;;16.53;72.94
41312;BME280;27061;41.648;24.568;2022-09-09T05:19:28;86371.56;;;16.74;73.41
41312;BME280;27061;41.648;24.568;2022-09-09T05:21:58;86339.66;;;16.65;73.26
41312;BME280;27061;41.648;24.568;2022-09-09T05:24:34;86371.19;;;16.88;73.91
41312;BME280;27061;41.648;24.568;2022-09-09T05:27:02;86329.97;;;16.62;73.71
41312;BME280;27061;41.648;24.568;2022-09-09T05:29:33;86342.16;;;16.75;74.10
41312;BME280;27061;41.648;24.568;2022-09-09T05:32:04;86331.06;;;16.73;74.54
41312;BME280;27061;41.648;24.568;2022-09-09T05:34:35;86374.59;;;17.17;74.30
41312;BME280;27061;41.648;24.568;2022-09-09T05:37:07;86370.81;;;17.27;73.15
41312;BME280;27061;41.648;24.568;2022-09-09T05:39:37;86364.28;;;17.37;71.92
41312;BME280;27061;41.648;24.568;2022-09-09T05:42:06;86330.22;;;17.28;71.02
41312;BME280;27061;41.648;24.568;2022-09-09T05:44:35;86360.59;;;17.42;72.26
41312;BME280;27061;41.648;24.568;2022-09-09T05:47:03;86346.63;;;17.42;72.03
41312;BME280;27061;41.648;24.568;2022-09-09T05:49:31;86327.25;;;17.34;71.78
41312;BME280;27061;41.648;24.568;2022-09-09T05:51:59;86369.50;;;17.74;73.32
41312;BME280;27061;41.648;24.568;2022-09-09T05:54:27;86324.50;;;17.57;73.29
41312;BME280;27061;41.648;24.568;2022-09-09T05:56:55;86327.91;;;17.60;72.33
41312;BME280;27061;41.648;24.568;2022-09-09T05:59:23;86348.19;;;17.85;71.96
41312;BME280;27061;41.648;24.568;2022-09-09T06:01:53;86358.81;;;18.03;72.30
41312;BME280;27061;41.648;24.568;2022-09-09T06:04:35;86351.03;;;18.06;72.72
41312;BME280;27061;41.648;24.568;2022-09-09T06:07:04;86332.13;;;18.06;72.29
41312;BME280;27061;41.648;24.568;2022-09-09T06:09:35;86366.72;;;18.42;71.50
41312;BME280;27061;41.648;24.568;2022-09-09T06:12:04;86342.69;;;18.26;71.71
41312;BME280;27061;41.648;24.568;2022-09-09T06:14:35;86284.88;;;17.94;71.62
41312;BME280;27061;41.648;24.568;2022-09-09T06:17:06;86367.25;;;18.70;70.60
41312;BME280;27061;41.648;24.568;2022-09-09T06:19:33;86367.25;;;18.70;70.02
41312;BME280;27061;41.648;24.568;2022-09-09T06:22:01;86294.97;;;18.28;69.25
41312;BME280;27061;41.648;24.568;2022-09-09T06:24:33;86344.59;;;18.76;69.62
41312;BME280;27061;41.648;24.568;2022-09-09T06:27:01;86365.59;;;18.97;69.41
41312;BME280;27061;41.648;24.568;2022-09-09T06:29:34;86358.69;;;19.15;69.44
41312;BME280;27061;41.648;24.568;2022-09-09T06:32:02;86346.78;;;19.15;69.15
41312;BME280;27061;41.648;24.568;2022-09-09T06:34:34;86354.50;;;19.35;68.35
41312;BME280;27061;41.648;24.568;2022-09-09T06:37:05;86328.16;;;19.26;69.47
41312;BME280;27061;41.648;24.568;2022-09-09T06:39:40;86330.91;;;19.28;69.46
41312;BME280;27061;41.648;24.568;2022-09-09T06:42:08;86316.94;;;19.26;68.72
41312;BME280;27061;41.648;24.568;2022-09-09T06:44:47;86363.16;;;19.68;68.18
41312;BME280;27061;41.648;24.568;2022-09-09T06:47:22;86345.22;;;19.59;68.12
41312;BME280;27061;41.648;24.568;2022-09-09T06:49:53;86363.09;;;19.89;67.52
41312;BME280;27061;41.648;24.568;2022-09-09T06:52:26;86355.09;;;19.96;67.41
41312;BME280;27061;41.648;24.568;2022-09-09T06:54:55;86370.50;;;20.16;66.68
41312;BME280;27061;41.648;24.568;2022-09-09T06:57:28;86363.53;;;20.15;67.02
41312;BME280;27061;41.648;24.568;2022-09-09T07:00:11;86360.94;;;20.27;66.53
41312;BME280;27061;41.648;24.568;2022-09-09T07:02:41;86373.78;;;20.41;65.60
41312;BME280;27061;41.648;24.568;2022-09-09T07:05:12;86374.75;;;20.52;65.35
41312;BME280;27061;41.648;24.568;2022-09-09T07:07:41;86379.38;;;20.60;64.98
41312;BME280;27061;41.648;24.568;2022-09-09T07:10:11;86372.91;;;20.63;64.17
41312;BME280;27061;41.648;24.568;2022-09-09T07:12:40;86358.25;;;20.61;63.63
41312;BME280;27061;41.648;24.568;2022-09-09T07:15:11;86364.56;;;20.78;61.84
41312;BME280;27061;41.648;24.568;2022-09-09T07:17:43;86352.75;;;20.75;62.32
41312;BME280;27061;41.648;24.568;2022-09-09T07:20:11;86356.25;;;20.93;61.33
41312;BME280;27061;41.648;24.568;2022-09-09T07:22:40;86375.72;;;21.15;61.72
41312;BME280;27061;41.648;24.568;2022-09-09T07:25:11;86366.81;;;21.09;60.06
41312;BME280;27061;41.648;24.568;2022-09-09T07:27:42;86366.66;;;21.13;59.14
41312;BME280;27061;41.648;24.568;2022-09-09T07:30:10;86353.28;;;21.13;58.66
41312;BME280;27061;41.648;24.568;2022-09-09T07:32:44;86362.00;;;21.41;59.84
41312;BME280;27061;41.648;24.568;2022-09-09T07:35:11;86390.75;;;21.60;60.46
41312;BME280;27061;41.648;24.568;2022-09-09T07:37:41;86393.03;;;21.72;60.13
41312;BME280;27061;41.648;24.568;2022-09-09T07:40:11;86349.28;;;21.59;60.19
41312;BME280;27061;41.648;24.568;2022-09-09T07:42:40;86355.91;;;21.68;59.97
41312;BME280;27061;41.648;24.568;2022-09-09T07:45:07;86383.97;;;22.03;59.45
41312;BME280;27061;41.648;24.568;2022-09-09T07:47:35;86386.91;;;22.16;58.44
41312;BME280;27061;41.648;24.568;2022-09-09T07:50:04;86380.41;;;22.19;58.77
41312;BME280;27061;41.648;24.568;2022-09-09T07:52:37;86397.28;;;22.36;58.34
41312;BME280;27061;41.648;24.568;2022-09-09T07:55:07;86391.09;;;22.48;55.84
41312;BME280;27061;41.648;24.568;2022-09-09T07:57:37;86355.09;;;22.34;55.88
41312;BME280;27061;41.648;24.568;2022-09-09T08:00:06;86353.16;;;22.45;56.05
41312;BME280;27061;41.648;24.568;2022-09-09T08:02:41;86382.13;;;22.75;55.19
41312;BME280;27061;41.648;24.568;2022-09-09T08:05:10;86376.75;;;22.84;53.72
41312;BME280;27061;41.648;24.568;2022-09-09T08:07:40;86352.81;;;22.83;54.11
41312;BME280;27061;41.648;24.568;2022-09-09T08:10:07;86372.88;;;23.06;54.50
41312;BME280;27061;41.648;24.568;2022-09-09T08:12:36;86338.41;;;22.89;53.64
41312;BME280;27061;41.648;24.568;2022-09-09T08:15:05;86377.53;;;23.26;53.65
41312;BME280;27061;41.648;24.568;2022-09-09T08:17:33;86384.22;;;23.33;53.80
41312;BME280;27061;41.648;24.568;2022-09-09T08:20:05;86352.88;;;23.25;52.70
41312;BME280;27061;41.648;24.568;2022-09-09T08:22:34;86376.13;;;23.55;53.53
41312;BME280;27061;41.648;24.568;2022-09-09T08:25:02;86367.38;;;23.61;52.59
41312;BME280;27061;41.648;24.568;2022-09-09T08:27:35;86356.75;;;23.61;52.34
41312;BME280;27061;41.648;24.568;2022-09-09T08:30:03;86345.81;;;23.68;52.28
41312;BME280;27061;41.648;24.568;2022-09-09T08:32:31;86366.13;;;23.85;51.81
41312;BME280;27061;41.648;24.568;2022-09-09T08:34:58;86370.84;;;24.03;50.85
41312;BME280;27061;41.648;24.568;2022-09-09T08:37:29;86366.03;;;24.15;48.02
41312;BME280;27061;41.648;24.568;2022-09-09T08:39:56;86356.44;;;24.22;50.14
41312;BME280;27061;41.648;24.568;2022-09-09T08:42:41;86362.94;;;24.33;46.74
41312;BME280;27061;41.648;24.568;2022-09-09T08:45:31;86350.59;;;24.39;49.40
41312;BME280;27061;41.648;24.568;2022-09-09T08:50:36;86349.63;;;24.57;43.65
41312;BME280;27061;41.648;24.568;2022-09-09T08:53:24;86329.22;;;24.42;48.18
41312;BME280;27061;41.648;24.568;2022-09-09T08:55:59;86349.19;;;24.65;43.83
41312;BME280;27061;41.648;24.568;2022-09-09T08:58:50;86352.94;;;24.74;45.01
41312;BME280;27061;41.648;24.568;2022-09-09T09:01:44;86363.91;;;24.80;43.87
41312;BME280;27061;41.648;24.568;2022-09-09T09:07:31;86356.78;;;24.81;44.76
41312;BME280;27061;41.648;24.568;2022-09-09T09:15:55;86352.38;;;24.85;45.90
41312;BME280;27061;41.648;24.568;2022-09-09T09:18:26;86342.53;;;24.84;45.75
41312;BME280;27061;41.648;24.568;2022-09-09T09:21:21;86355.00;;;25.01;47.99
41312;BME280;27061;41.648;24.568;2022-09-09T09:23:57;86358.53;;;25.02;45.47
41312;BME280;27061;41.648;24.568;2022-09-09T09:26:33;86359.66;;;25.07;45.21
41312;BME280;27061;41.648;24.568;2022-09-09T09:29:13;86325.66;;;24.94;45.80
41312;BME280;27061;41.648;24.568;2022-09-09T09:31:45;86326.13;;;24.99;45.45
41312;BME280;27061;41.648;24.568;2022-09-09T09:34:15;86327.50;;;25.00;44.34
41312;BME280;27061;41.648;24.568;2022-09-09T09:36:59;86330.78;;;25.04;44.27
41312;BME280;27061;41.648;24.568;2022-09-09T09:39:35;86354.44;;;25.24;44.53
41312;BME280;27061;41.648;24.568;2022-09-09T09:42:25;86314.81;;;24.99;46.56
41312;BME280;27061;41.648;24.568;2022-09-09T09:44:55;86328.41;;;25.09;47.56
41312;BME280;27061;41.648;24.568;2022-09-09T09:47:24;86305.06;;;24.96;45.80
41312;BME280;27061;41.648;24.568;2022-09-09T09:50:01;86353.44;;;25.17;45.27
41312;BME280;27061;41.648;24.568;2022-09-09T09:52:36;86349.34;;;25.14;44.25
41312;BME280;27061;41.648;24.568;2022-09-09T09:55:13;86352.41;;;25.10;45.92
41312;BME280;27061;41.648;24.568;2022-09-09T09:57:45;86324.78;;;24.98;45.33
41312;BME280;27061;41.648;24.568;2022-09-09T10:00:18;86330.44;;;25.10;45.26
41312;BME280;27061;41.648;24.568;2022-09-09T10:03:00;86314.25;;;24.96;45.13
41312;BME280;27061;41.648;24.568;2022-09-09T10:05:35;86317.75;;;24.97;46.43
41312;BME280;27061;41.648;24.568;2022-09-09T10:08:13;86350.59;;;25.30;45.10
41312;BME280;27061;41.648;24.568;2022-09-09T10:16:45;86358.06;;;25.35;46.67
41312;BME280;27061;41.648;24.568;2022-09-09T10:19:28;86352.50;;;25.33;46.32
41312;BME280;27061;41.648;24.568;2022-09-09T10:22:27;86349.91;;;25.29;46.90
41312;BME280;27061;41.648;24.568;2022-09-09T10:28:15;86352.28;;;25.37;43.27
41312;BME280;27061;41.648;24.568;2022-09-09T10:38:36;86339.03;;;25.21;46.71
41312;BME280;27061;41.648;24.568;2022-09-09T10:41:19;86317.19;;;25.07;48.64
41312;BME280;27061;41.648;24.568;2022-09-09T10:49:33;86332.44;;;25.37;47.71
41312;BME280;27061;41.648;24.568;2022-09-09T10:52:21;86324.31;;;25.31;48.30
41312;BME280;27061;41.648;24.568;2022-09-09T10:55:14;86337.41;;;25.62;45.70
41312;BME280;27061;41.648;24.568;2022-09-09T10:57:48;86341.72;;;25.48;42.12
41312;BME280;27061;41.648;24.568;2022-09-09T11:03:28;86337.75;;;25.69;43.67
41312;BME280;27061;41.648;24.568;2022-09-09T11:06:09;86331.47;;;25.79;41.91
41312;BME280;27061;41.648;24.568;2022-09-09T11:08:41;86313.34;;;25.74;44.52
41312;BME280;27061;41.648;24.568;2022-09-09T11:21:52;86286.50;;;25.47;39.31
41312;BME280;27061;41.648;24.568;2022-09-09T11:24:31;86339.19;;;25.80;40.15
41312;BME280;27061;41.648;24.568;2022-09-09T11:27:07;86333.50;;;25.80;40.88
41312;BME280;27061;41.648;24.568;2022-09-09T11:38:12;86332.38;;;25.75;43.12
41312;BME280;27061;41.648;24.568;2022-09-09T11:40:44;86310.44;;;25.63;43.28
41312;BME280;27061;41.648;24.568;2022-09-09T11:43:17;86327.31;;;25.65;41.85
41312;BME280;27061;41.648;24.568;2022-09-09T11:45:55;86329.22;;;25.69;43.35
41312;BME280;27061;41.648;24.568;2022-09-09T11:48:32;86311.13;;;25.64;43.83
41312;BME280;27061;41.648;24.568;2022-09-09T11:51:09;86336.75;;;25.62;43.84
41312;BME280;27061;41.648;24.568;2022-09-09T11:56:27;86315.31;;;25.52;44.11
41312;BME280;27061;41.648;24.568;2022-09-09T11:59:19;86298.56;;;25.35;41.74
41312;BME280;27061;41.648;24.568;2022-09-09T12:01:50;86291.63;;;25.32;43.70
41312;BME280;27061;41.648;24.568;2022-09-09T12:17:17;86308.78;;;25.79;42.62
41312;BME280;27061;41.648;24.568;2022-09-09T12:19:47;86308.59;;;25.70;43.81
41312;BME280;27061;41.648;24.568;2022-09-09T12:22:27;86287.28;;;25.59;44.10
41312;BME280;27061;41.648;24.568;2022-09-09T12:25:17;86304.34;;;25.82;44.27
41312;BME280;27061;41.648;24.568;2022-09-09T12:30:49;86289.50;;;25.81;44.66
41312;BME280;27061;41.648;24.568;2022-09-09T12:33:21;86289.63;;;25.79;42.88
41312;BME280;27061;41.648;24.568;2022-09-09T12:35:55;86290.41;;;25.78;43.48
41312;BME280;27061;41.648;24.568;2022-09-09T12:38:32;86295.59;;;25.86;44.41
41312;BME280;27061;41.648;24.568;2022-09-09T12:41:01;86269.91;;;25.65;43.32
41312;BME280;27061;41.648;24.568;2022-09-09T12:43:30;86279.16;;;25.88;41.82
41312;BME280;27061;41.648;24.568;2022-09-09T12:46:01;86269.34;;;25.98;45.35
41312;BME280;27061;41.648;24.568;2022-09-09T12:48:40;86275.88;;;25.84;42.12
41312;BME280;27061;41.648;24.568;2022-09-09T12:51:24;86244.63;;;25.73;44.15
41312;BME280;27061;41.648;24.568;2022-09-09T12:53:54;86270.34;;;26.05;43.20
41312;BME280;27061;41.648;24.568;2022-09-09T12:56:25;86267.13;;;26.11;41.43
41312;BME280;27061;41.648;24.568;2022-09-09T12:58:55;86274.16;;;26.12;43.55
41312;BME280;27061;41.648;24.568;2022-09-09T13:01:33;86269.72;;;26.15;43.11
41312;BME280;27061;41.648;24.568;2022-09-09T13:04:02;86253.06;;;26.09;44.93
41312;BME280;27061;41.648;24.568;2022-09-09T13:06:31;86267.00;;;26.13;44.40
41312;BME280;27061;41.648;24.568;2022-09-09T13:09:00;86273.94;;;26.16;44.16
41312;BME280;27061;41.648;24.568;2022-09-09T13:14:00;86271.88;;;26.15;43.09
41312;BME280;27061;41.648;24.568;2022-09-09T13:16:31;86281.81;;;26.27;41.48
41312;BME280;27061;41.648;24.568;2022-09-09T13:19:09;86272.81;;;26.11;41.80
41312;BME280;27061;41.648;24.568;2022-09-09T13:21:41;86275.69;;;26.22;43.30
41312;BME280;27061;41.648;24.568;2022-09-09T13:24:31;86260.72;;;26.23;45.03
41312;BME280;27061;41.648;24.568;2022-09-09T13:29:32;86262.56;;;26.40;42.36
41312;BME280;27061;41.648;24.568;2022-09-09T13:32:12;86250.41;;;26.41;44.01
41312;BME280;27061;41.648;24.568;2022-09-09T13:34:59;86233.88;;;26.33;44.58
41312;BME280;27061;41.648;24.568;2022-09-09T13:37:34;86245.28;;;26.44;44.61
41312;BME280;27061;41.648;24.568;2022-09-09T13:40:05;86258.72;;;26.56;42.70
41312;BME280;27061;41.648;24.568;2022-09-09T13:42:39;86220.50;;;26.32;41.48
41312;BME280;27061;41.648;24.568;2022-09-09T13:45:19;86227.28;;;26.37;42.60
41312;BME280;27061;41.648;24.568;2022-09-09T13:47:48;86214.81;;;26.32;43.24
41312;BME280;27061;41.648;24.568;2022-09-09T13:50:25;86232.06;;;26.51;43.69
41312;BME280;27061;41.648;24.568;2022-09-09T13:52:57;86245.94;;;26.68;42.37
41312;BME280;27061;41.648;24.568;2022-09-09T13:55:29;86253.13;;;26.77;43.01
41312;BME280;27061;41.648;24.568;2022-09-09T13:58:02;86252.16;;;26.81;42.77
41312;BME280;27061;41.648;24.568;2022-09-09T14:00:32;86258.69;;;26.79;41.72
41312;BME280;27061;41.648;24.568;2022-09-09T14:03:00;86245.25;;;26.67;41.97
41312;BME280;27061;41.648;24.568;2022-09-09T14:05:33;86246.13;;;26.53;42.72
41312;BME280;27061;41.648;24.568;2022-09-09T14:08:00;86189.81;;;26.00;42.55
41312;BME280;27061;41.648;24.568;2022-09-09T14:10:31;86252.31;;;26.45;44.43
41312;BME280;27061;41.648;24.568;2022-09-09T14:12:58;86244.78;;;26.52;43.84
41312;BME280;27061;41.648;24.568;2022-09-09T14:15:25;86199.47;;;26.16;44.21
41312;BME280;27061;41.648;24.568;2022-09-09T14:17:54;86225.31;;;26.22;43.53
41312;BME280;27061;41.648;24.568;2022-09-09T14:20:21;86217.31;;;26.14;44.60
41312;BME280;27061;41.648;24.568;2022-09-09T14:22:49;86217.34;;;26.25;44.56
41312;BME280;27061;41.648;24.568;2022-09-09T14:25:17;86242.75;;;26.50;44.93
41312;BME280;27061;41.648;24.568;2022-09-09T14:27:45;86239.66;;;26.54;42.95
41312;BME280;27061;41.648;24.568;2022-09-09T14:30:13;86248.56;;;26.48;43.10
41312;BME280;27061;41.648;24.568;2022-09-09T14:32:41;86237.34;;;26.46;43.87
41312;BME280;27061;41.648;24.568;2022-09-09T14:35:08;86201.88;;;26.11;45.19
41312;BME280;27061;41.648;24.568;2022-09-09T14:37:37;86249.38;;;26.47;45.30
41312;BME280;27061;41.648;24.568;2022-09-09T14:40:06;86243.63;;;26.36;44.55
41312;BME280;27061;41.648;24.568;2022-09-09T14:42:35;86225.13;;;26.37;43.79
41312;BME280;27061;41.648;24.568;2022-09-09T14:45:03;86218.38;;;26.43;43.34
41312;BME280;27061;41.648;24.568;2022-09-09T14:47:32;86246.00;;;26.55;44.68
41312;BME280;27061;41.648;24.568;2022-09-09T14:50:00;86243.41;;;26.51;45.37
41312;BME280;27061;41.648;24.568;2022-09-09T14:52:31;86248.13;;;26.44;44.43
41312;BME280;27061;41.648;24.568;2022-09-09T14:54:58;86205.69;;;26.18;44.55
41312;BME280;27061;41.648;24.568;2022-09-09T14:57:26;86228.03;;;26.24;45.08
41312;BME280;27061;41.648;24.568;2022-09-09T14:59:54;86243.22;;;26.32;44.74
41312;BME280;27061;41.648;24.568;2022-09-09T15:02:22;86225.75;;;26.04;44.62
41312;BME280;27061;41.648;24.568;2022-09-09T15:04:49;86231.59;;;26.12;45.50
41312;BME280;27061;41.648;24.568;2022-09-09T15:07:17;86235.63;;;26.05;45.60
41312;BME280;27061;41.648;24.568;2022-09-09T15:09:46;86218.91;;;25.88;45.04
41312;BME280;27061;41.648;24.568;2022-09-09T15:12:15;86242.22;;;26.01;45.88
41312;BME280;27061;41.648;24.568;2022-09-09T15:14:45;86241.47;;;25.90;46.28